createdAt,value
2023-05-02T00:01:06.323Z,1.85
2023-05-02T00:05:22.532Z,1.67
2023-05-02T00:09:38.956Z,1.90
2023-05-02T00:13:55.317Z,2.00
2023-05-02T00:18:12.108Z,1.70
2023-05-02T00:22:28.600Z,1.70
2023-05-02T00:26:44.922Z,1.65
2023-05-02T00:31:01.308Z,1.50
2023-05-02T00:35:17.701Z,1.95
2023-05-02T00:39:36.143Z,1.60
2023-05-02T00:43:52.513Z,1.98
2023-05-02T00:48:10.013Z,1.80
2023-05-02T00:52:26.782Z,1.80
2023-05-02T00:56:43.132Z,1.67
2023-05-02T01:01:16.899Z,1.80
2023-05-02T01:05:47.263Z,1.48
2023-05-02T01:10:23.310Z,1.58
2023-05-02T01:14:45.124Z,1.62
2023-05-02T01:19:02.215Z,2.45
2023-05-02T01:23:44.990Z,2.10
2023-05-02T01:28:23.694Z,2.00
2023-05-02T01:32:42.109Z,1.92
2023-05-02T01:36:59.647Z,1.90
2023-05-02T01:41:16.357Z,2.00
2023-05-02T01:45:34.193Z,2.10
2023-05-02T01:49:50.619Z,2.62
2023-05-02T01:54:09.184Z,2.33
2023-05-02T01:58:27.522Z,2.55
2023-05-02T02:02:44.884Z,2.30
2023-05-02T02:07:07.974Z,2.40
2023-05-02T02:11:36.005Z,1.95
2023-05-02T02:15:54.068Z,2.12
2023-05-02T02:20:12.800Z,1.73
2023-05-02T02:24:29.331Z,2.30
2023-05-02T02:28:46.241Z,2.30
2023-05-02T02:33:02.460Z,1.87
2023-05-02T02:37:30.444Z,1.90
2023-05-02T02:42:08.493Z,2.10
2023-05-02T02:46:34.695Z,1.65
2023-05-02T02:51:16.235Z,1.90
2023-05-02T02:55:48.018Z,1.90
2023-05-02T03:00:22.245Z,2.30
2023-05-02T03:04:46.189Z,1.90
2023-05-02T03:09:02.619Z,1.83
2023-05-02T03:13:18.839Z,2.15
2023-05-02T03:17:35.121Z,2.00
2023-05-02T03:21:51.389Z,2.22
2023-05-02T03:26:07.750Z,2.00
2023-05-02T03:30:24.079Z,2.10
2023-05-02T03:34:42.002Z,2.33
2023-05-02T03:38:58.368Z,2.00
2023-05-02T03:43:14.784Z,2.20
2023-05-02T03:47:31.009Z,2.20
2023-05-02T03:51:47.347Z,2.15
2023-05-02T03:56:03.596Z,1.90
2023-05-02T04:00:19.968Z,2.22
2023-05-02T04:04:36.596Z,2.10
2023-05-02T04:08:52.909Z,2.40
2023-05-02T04:13:09.224Z,2.37
2023-05-02T04:17:25.545Z,2.30
2023-05-02T04:21:41.924Z,2.30
2023-05-02T04:25:58.263Z,2.10
2023-05-02T04:30:14.760Z,1.98
2023-05-02T04:34:31.031Z,2.28
2023-05-02T04:38:47.305Z,2.08
2023-05-02T04:43:03.574Z,2.22
2023-05-02T04:47:19.810Z,2.17
2023-05-02T04:51:36.109Z,2.17
2023-05-02T04:55:52.451Z,2.33
2023-05-02T05:00:09.330Z,2.45
2023-05-02T05:04:25.944Z,2.10
2023-05-02T05:08:42.461Z,2.37
2023-05-02T05:12:58.672Z,2.20
2023-05-02T05:17:15.058Z,2.50
2023-05-02T05:21:31.321Z,2.70
2023-05-02T05:25:47.746Z,2.47
2023-05-02T05:30:04.749Z,2.53
2023-05-02T05:34:21.324Z,2.22
2023-05-02T05:38:37.954Z,2.25
2023-05-02T05:42:54.233Z,2.22
2023-05-02T05:47:10.664Z,2.37
2023-05-02T05:51:28.105Z,2.70
2023-05-02T05:55:44.449Z,2.60
2023-05-02T06:00:01.032Z,2.20
2023-05-02T06:04:17.696Z,2.50
2023-05-02T06:08:33.941Z,2.72
2023-05-02T06:12:50.292Z,2.08
2023-05-02T06:17:06.868Z,2.40
2023-05-02T06:21:23.156Z,2.25
2023-05-02T06:25:39.710Z,2.45
2023-05-02T06:29:56.017Z,2.53
2023-05-02T06:34:12.280Z,2.60
2023-05-02T06:38:28.633Z,2.50
2023-05-02T06:42:44.950Z,2.40
2023-05-02T06:47:01.408Z,2.37
2023-05-02T06:51:19.640Z,2.70
2023-05-02T06:55:35.856Z,2.80
2023-05-02T06:59:52.218Z,3.00
2023-05-02T07:04:08.433Z,2.62
2023-05-02T07:08:24.774Z,2.90
2023-05-02T07:12:41.331Z,2.83
2023-05-02T07:16:57.814Z,2.83
2023-05-02T07:21:14.601Z,2.72
2023-05-02T07:25:30.901Z,2.55
2023-05-02T07:29:47.101Z,2.42
2023-05-02T07:34:03.326Z,2.78
2023-05-02T07:38:19.602Z,2.72
2023-05-02T07:42:36.502Z,2.97
2023-05-02T07:46:53.692Z,3.00
2023-05-02T07:51:13.739Z,2.95
2023-05-02T07:55:31.550Z,2.67
2023-05-02T07:59:48.223Z,2.80
2023-05-02T08:04:07.600Z,2.90
2023-05-02T08:08:24.220Z,3.60
2023-05-02T08:12:41.678Z,2.80
2023-05-02T08:16:58.349Z,2.85
2023-05-02T08:21:14.581Z,2.60
2023-05-02T08:25:30.829Z,2.70
2023-05-02T08:29:46.988Z,2.83
2023-05-02T08:34:03.186Z,2.53
2023-05-02T08:38:19.322Z,2.65
2023-05-02T08:42:36.013Z,2.55
2023-05-02T08:46:52.723Z,3.10
2023-05-02T08:51:16.299Z,3.60
2023-05-02T08:55:33.223Z,2.67
2023-05-02T08:59:50.160Z,3.05
2023-05-02T09:04:06.619Z,2.70
2023-05-02T09:08:24.572Z,2.55
2023-05-02T09:12:41.096Z,3.08
2023-05-02T09:17:03.934Z,3.12
2023-05-02T09:21:25.586Z,2.72
2023-05-02T09:25:41.984Z,2.92
2023-05-02T09:30:30.571Z,3.15
2023-05-02T09:35:06.339Z,2.72
2023-05-02T09:39:29.382Z,2.67
2023-05-02T09:48:12.359Z,2.60
2023-05-02T09:52:28.610Z,2.65
2023-05-02T09:56:56.918Z,2.65
2023-05-02T10:01:20.137Z,2.37
2023-05-02T10:05:40.701Z,2.35
2023-05-02T10:09:58.805Z,2.35
2023-05-02T10:14:16.701Z,2.62
2023-05-02T10:18:45.292Z,2.67
2023-05-02T10:23:04.769Z,2.30
2023-05-02T10:27:21.631Z,2.70
2023-05-02T10:31:39.969Z,2.90
2023-05-02T10:35:56.301Z,2.60
2023-05-02T10:40:13.853Z,2.50
2023-05-02T10:44:37.888Z,2.97
2023-05-02T10:49:04.537Z,2.45
2023-05-02T10:53:33.906Z,2.92
2023-05-02T10:58:01.716Z,3.00
2023-05-02T11:02:24.300Z,2.80
2023-05-02T11:07:01.466Z,2.20
2023-05-02T11:11:43.829Z,2.97
2023-05-02T11:16:00.358Z,2.53
2023-05-02T11:20:19.786Z,2.65
2023-05-02T11:24:43.080Z,2.75
2023-05-02T11:28:59.326Z,2.53
2023-05-02T11:33:17.769Z,2.50
2023-05-02T11:37:34.341Z,2.65
2023-05-02T11:41:51.301Z,2.40
2023-05-02T11:46:07.900Z,2.33
2023-05-02T11:50:25.844Z,2.28
2023-05-02T11:54:42.152Z,2.62
2023-05-02T11:59:04.549Z,2.17
2023-05-02T12:03:33.323Z,2.28
2023-05-02T12:07:49.677Z,2.37
2023-05-02T12:12:06.103Z,2.30
2023-05-02T12:16:22.506Z,2.42
2023-05-02T12:20:39.558Z,2.08
2023-05-02T12:24:56.228Z,2.40
2023-05-02T12:29:12.903Z,2.35
2023-05-02T12:33:29.152Z,2.90
2023-05-02T12:37:47.324Z,2.60
2023-05-02T12:42:17.977Z,2.22
2023-05-02T12:46:34.371Z,2.35
2023-05-02T12:50:51.446Z,2.50
2023-05-02T12:55:37.152Z,2.60
2023-05-02T12:59:57.082Z,2.40
2023-05-02T13:04:13.566Z,2.35
2023-05-02T13:08:30.075Z,2.33
2023-05-02T13:12:47.043Z,2.30
2023-05-02T13:17:04.300Z,2.30
2023-05-02T13:21:20.658Z,2.42
2023-05-02T13:25:36.971Z,2.75
2023-05-02T13:29:53.236Z,2.40
2023-05-02T13:34:09.470Z,2.60
2023-05-02T13:38:26.260Z,2.80
2023-05-02T13:42:42.629Z,2.83
2023-05-02T13:46:58.860Z,2.22
2023-05-02T13:51:15.024Z,2.67
2023-05-02T13:55:31.396Z,2.62
2023-05-02T13:59:47.595Z,2.70
2023-05-02T14:04:09.115Z,2.50
2023-05-02T14:08:25.860Z,2.60
2023-05-02T14:12:42.271Z,2.90
2023-05-02T14:17:00.573Z,2.60
2023-05-02T14:21:17.504Z,2.20
2023-05-02T14:25:33.870Z,2.40
2023-05-02T14:29:50.182Z,2.22
2023-05-02T14:34:08.797Z,2.70
2023-05-02T14:38:25.310Z,2.55
2023-05-02T14:42:42.393Z,2.37
2023-05-02T14:46:58.943Z,2.58
2023-05-02T14:51:15.678Z,2.17
2023-05-02T14:55:36.397Z,2.33
2023-05-02T14:59:53.036Z,2.60
2023-05-02T15:04:09.748Z,2.80
2023-05-02T15:08:27.693Z,2.67
2023-05-02T15:12:44.055Z,2.20
2023-05-02T15:17:00.580Z,2.60
2023-05-02T15:21:17.151Z,2.08
2023-05-02T15:25:33.934Z,1.90
2023-05-02T15:29:50.243Z,2.00
2023-05-02T15:34:06.588Z,3.78
2023-05-02T15:38:22.876Z,2.78
2023-05-02T15:42:39.131Z,2.22
2023-05-02T15:46:56.192Z,2.35
2023-05-02T15:51:13.820Z,2.65
2023-05-02T15:55:31.254Z,2.20
2023-05-02T15:59:47.448Z,2.87
2023-05-02T16:04:06.450Z,2.42
2023-05-02T16:08:22.710Z,2.78
2023-05-02T16:12:38.970Z,2.55
2023-05-02T16:16:56.500Z,2.90
2023-05-02T16:21:12.896Z,2.67
2023-05-02T16:25:29.296Z,3.28
2023-05-02T16:29:45.588Z,3.45
2023-05-02T16:34:03.215Z,3.22
2023-05-02T16:38:19.470Z,3.45
2023-05-02T16:42:35.913Z,2.58
2023-05-02T16:46:52.714Z,2.90
2023-05-02T16:51:09.156Z,3.12
2023-05-02T16:55:25.446Z,2.50
2023-05-02T16:59:41.952Z,2.40
2023-05-02T17:03:58.294Z,2.75
2023-05-02T17:08:15.086Z,3.40
2023-05-02T17:12:31.945Z,3.47
2023-05-02T17:16:48.273Z,4.00
2023-05-02T17:21:04.719Z,3.85
2023-05-02T17:25:21.087Z,4.05
2023-05-02T17:29:37.708Z,4.53
2023-05-02T17:33:54.043Z,4.22
2023-05-02T17:38:10.238Z,4.00
2023-05-02T17:42:26.527Z,3.70
2023-05-02T17:46:43.365Z,4.00
2023-05-02T17:51:02.544Z,4.07
2023-05-02T17:55:19.192Z,3.92
2023-05-02T17:59:39.201Z,4.37
2023-05-02T18:03:55.481Z,4.30
2023-05-02T18:08:11.945Z,4.45
2023-05-02T18:12:28.528Z,4.40
2023-05-02T18:16:48.767Z,4.87
2023-05-02T18:21:06.376Z,5.45
2023-05-02T18:25:22.577Z,5.53
2023-05-02T18:29:38.747Z,5.03
2023-05-02T18:33:55.108Z,5.15
2023-05-02T18:38:11.763Z,5.05
2023-05-02T18:42:28.400Z,5.15
2023-05-02T18:46:44.655Z,6.22
2023-05-02T18:51:01.551Z,6.60
2023-05-02T18:55:18.587Z,5.53
2023-05-02T18:59:34.832Z,5.43
2023-05-02T19:03:52.949Z,5.93
2023-05-02T19:08:09.809Z,6.18
2023-05-02T19:12:26.104Z,5.53
2023-05-02T19:16:42.329Z,5.82
2023-05-02T19:20:58.820Z,5.75
2023-05-02T19:25:16.015Z,5.78
2023-05-02T19:29:32.166Z,5.72
2023-05-02T19:33:52.205Z,5.35
2023-05-02T19:38:08.519Z,5.65
2023-05-02T19:42:24.677Z,5.60
2023-05-02T19:46:41.068Z,5.82
2023-05-02T19:50:57.364Z,5.47
2023-05-02T19:55:13.819Z,5.78
2023-05-02T19:59:30.460Z,5.97
2023-05-02T20:03:48.359Z,4.70
2023-05-02T20:08:04.704Z,4.25
2023-05-02T20:12:21.823Z,5.57
2023-05-02T20:16:38.351Z,4.55
2023-05-02T20:20:55.048Z,4.80
2023-05-02T20:25:12.120Z,5.70
2023-05-02T20:29:28.363Z,4.93
2023-05-02T20:33:46.029Z,4.70
2023-05-02T20:38:02.500Z,4.40
2023-05-02T20:42:23.484Z,4.60
2023-05-02T20:46:39.794Z,4.57
2023-05-02T20:50:56.204Z,4.55
2023-05-02T20:55:12.680Z,4.30
2023-05-02T20:59:28.943Z,4.95
2023-05-02T21:03:45.407Z,4.30
2023-05-02T21:08:01.813Z,5.00
2023-05-02T21:12:18.333Z,4.90
2023-05-02T21:16:34.772Z,5.18
2023-05-02T21:20:51.153Z,4.28
2023-05-02T21:25:07.652Z,4.50
2023-05-02T21:29:23.822Z,5.37
2023-05-02T21:33:41.626Z,5.07
2023-05-02T21:37:57.929Z,4.47
2023-05-02T21:42:14.156Z,5.12
2023-05-02T21:46:30.394Z,4.55
2023-05-02T21:50:46.792Z,5.53
2023-05-02T21:55:03.175Z,4.65
2023-05-02T21:59:19.632Z,5.22
2023-05-02T22:03:36.866Z,4.72
2023-05-02T22:07:53.280Z,5.62
2023-05-02T22:12:09.626Z,5.32
2023-05-02T22:16:26.622Z,4.82
2023-05-02T22:20:43.709Z,4.70
2023-05-02T22:25:00.527Z,5.03
2023-05-02T22:29:16.913Z,4.80
2023-05-02T22:33:33.258Z,5.50
2023-05-02T22:37:50.168Z,5.05
2023-05-02T22:42:06.556Z,5.07
2023-05-02T22:46:22.896Z,4.80
2023-05-02T22:50:39.145Z,4.93
2023-05-02T22:54:55.607Z,4.95
2023-05-02T22:59:11.958Z,4.60
2023-05-02T23:03:28.319Z,4.57
2023-05-02T23:07:44.995Z,4.78
2023-05-02T23:12:06.024Z,4.20
2023-05-02T23:16:22.369Z,4.45
2023-05-02T23:20:38.694Z,4.37
2023-05-02T23:24:55.024Z,4.07
2023-05-02T23:29:12.616Z,4.30
2023-05-02T23:33:29.850Z,4.57
2023-05-02T23:37:46.208Z,3.90
2023-05-02T23:42:03.956Z,3.95
2023-05-02T23:46:20.288Z,4.60
2023-05-02T23:50:36.754Z,3.62
2023-05-02T23:54:53.070Z,4.18
2023-05-02T23:59:09.524Z,3.33
